VABB/BOM METAR and TAF weather

Enter ICAO airport designator
Station Type Date Time Source
VABB METAR 2019/05/25 15:00 UTC NOAA

VABB 251500Z 27009KT 5000 HZ NSC 30/25 Q1007 NOSIG


Station Type Date Time Source
VABB Decoded METAR 2019/05/25 15:00 UTC NOAA

Bombay / Santacruz, India (VABB) 19-07N 072-51E 14M
May 25, 2019 - 11:00 AM EDT / 2019.05.25 1500 UTC
Wind: from the W (270 degrees) at 10 MPH (9 KT):0
Visibility: 3 mile(s):0
Weather: haze
Temperature: 86 F (30 C)
Heat index: 96.8 F (36.0 C):1
Dew Point: 77 F (25 C)
Relative Humidity: 74%
Pressure (altimeter): 29.74 in. Hg (1007 hPa)
ob: VABB 251500Z 27009KT 5000 HZ NSC 30/25 Q1007 NOSIG
cycle: 15

Station Type Date Time Source
VABB TAF 2019/05/25 12:21 UTC NOAA

TAF TAF VABB 251100Z 2512/2618 28008KT 6000 NSC
BECMG 2515/2517 4000 HZ FEW020
BECMG 2600/2602 00000KT 3000 HZ
BECMG 2603/2605 28008KT 5000 FU
BECMG 2607/2609 28008G18KT 6000
BECMG 2609/2611 NSC
BECMG 2612/2614 28008KT 5000 HZ FEW020
BECMG 2615/2617 4000 HZ

Example: see airport list